createdAt,value
2022-08-11T00:02:35.568Z,101445.69
2022-08-11T00:05:12.348Z,101444.09
2022-08-11T00:07:47.146Z,101443.47
2022-08-11T00:10:17.964Z,101442.63
2022-08-11T00:12:53.417Z,101436.59
2022-08-11T00:15:22.204Z,101440.41
2022-08-11T00:17:51.947Z,101442.09
2022-08-11T00:20:21.955Z,101441.34
2022-08-11T00:22:52.174Z,101440.63
2022-08-11T00:25:22.306Z,101432.16
2022-08-11T00:27:51.006Z,101435.44
2022-08-11T00:30:19.478Z,101434.66
2022-08-11T00:32:56.485Z,101444.59
2022-08-11T00:35:55.834Z,101437.84
2022-08-11T00:38:24.534Z,101429.19
2022-08-11T00:40:56.604Z,101438.16
2022-08-11T00:43:44.436Z,101433.09
2022-08-11T00:46:19.775Z,101428.47
2022-08-11T00:49:01.004Z,101431.50
2022-08-11T00:52:02.060Z,101432.38
2022-08-11T00:55:02.426Z,101432.72
2022-08-11T00:58:02.815Z,101431.13
2022-08-11T01:00:35.689Z,101440.94
2022-08-11T01:03:41.395Z,101435.47
2022-08-11T01:06:39.718Z,101426.88
2022-08-11T01:09:27.125Z,101427.97
2022-08-11T01:12:16.306Z,101441.34
2022-08-11T01:15:17.405Z,101429.94
2022-08-11T01:18:15.375Z,101440.03
2022-08-11T01:21:11.084Z,101437.59
2022-08-11T01:24:32.970Z,101440.78
2022-08-11T01:27:22.964Z,101436.88
2022-08-11T01:30:39.625Z,101436.22
2022-08-11T01:33:55.675Z,101439.69
2022-08-11T01:37:00.244Z,101434.00
2022-08-11T01:40:05.454Z,101430.47
2022-08-11T01:43:48.475Z,101441.44
2022-08-11T01:46:22.826Z,101444.28
2022-08-11T01:48:59.056Z,101430.16
2022-08-11T01:51:44.703Z,101430.03
2022-08-11T01:54:38.644Z,101437.41
2022-08-11T01:57:21.725Z,101443.91
2022-08-11T01:59:53.355Z,101444.31
2022-08-11T02:02:50.267Z,101443.91
2022-08-11T02:06:01.848Z,101437.88
2022-08-11T02:08:50.519Z,101441.47
2022-08-11T02:11:34.464Z,101443.66
2022-08-11T02:14:21.043Z,101445.44
2022-08-11T02:16:57.814Z,101446.28
2022-08-11T02:19:54.114Z,101441.97
2022-08-11T02:22:55.394Z,101434.28
2022-08-11T02:25:31.364Z,101431.38
2022-08-11T02:28:09.084Z,101439.50
2022-08-11T02:30:43.555Z,101435.13
2022-08-11T02:33:24.033Z,101435.47
2022-08-11T02:36:03.525Z,101438.88
2022-08-11T02:38:37.064Z,101435.41
2022-08-11T02:41:27.525Z,101434.19
2022-08-11T02:44:12.085Z,101433.78
2022-08-11T02:46:53.054Z,101432.56
2022-08-11T02:50:02.540Z,101431.16
2022-08-11T02:52:42.737Z,101430.44
2022-08-11T02:55:48.826Z,101424.50
2022-08-11T02:58:19.931Z,101428.44
2022-08-11T03:01:02.635Z,101432.94
2022-08-11T03:03:37.464Z,101425.91
2022-08-11T03:06:13.825Z,101430.69
2022-08-11T03:08:55.389Z,101427.16
2022-08-11T03:11:57.894Z,101425.34
2022-08-11T03:14:49.998Z,101420.38
2022-08-11T03:17:27.184Z,101419.81
2022-08-11T03:20:07.395Z,101428.09
2022-08-11T03:22:42.046Z,101421.41
2022-08-11T03:25:19.709Z,101420.09
2022-08-11T03:27:54.484Z,101422.72
2022-08-11T03:30:34.467Z,101415.00
2022-08-11T03:33:37.684Z,101419.44
2022-08-11T03:36:17.365Z,101419.44
2022-08-11T03:39:00.174Z,101414.34
2022-08-11T03:42:01.281Z,101418.31
2022-08-11T03:45:01.465Z,101418.19
2022-08-11T03:47:52.630Z,101419.81
2022-08-11T03:50:54.426Z,101413.06
2022-08-11T03:53:37.845Z,101408.06
2022-08-11T03:56:39.555Z,101411.75
2022-08-11T03:59:37.777Z,101416.50
2022-08-11T04:02:37.175Z,101414.16
2022-08-11T04:05:40.415Z,101414.09
2022-08-11T04:08:53.134Z,101415.00
2022-08-11T04:11:46.034Z,101410.94
2022-08-11T04:15:07.166Z,101408.59
2022-08-11T04:18:01.124Z,101406.56
2022-08-11T04:20:51.864Z,101410.88
2022-08-11T04:24:36.728Z,101412.91
2022-08-11T04:27:01.887Z,101411.56
2022-08-11T04:30:02.109Z,101411.75
2022-08-11T04:33:04.095Z,101411.34
2022-08-11T04:35:51.176Z,101404.03
2022-08-11T04:38:50.704Z,101405.53
2022-08-11T04:42:00.376Z,101405.72
2022-08-11T04:45:01.904Z,101401.72
2022-08-11T04:48:20.705Z,101399.16
2022-08-11T04:51:27.088Z,101397.06
2022-08-11T04:54:26.350Z,101400.47
2022-08-11T04:57:23.666Z,101403.25
2022-08-11T05:00:24.014Z,101401.75
2022-08-11T05:03:36.450Z,101398.66
2022-08-11T05:06:37.234Z,101400.84
2022-08-11T05:09:23.839Z,101407.94
2022-08-11T05:12:08.694Z,101406.59
2022-08-11T05:15:00.145Z,101408.47
2022-08-11T05:17:55.935Z,101408.19
2022-08-11T05:20:44.686Z,101421.03
2022-08-11T05:23:31.284Z,101421.03
2022-08-11T05:26:45.981Z,101417.91
2022-08-11T05:29:57.007Z,101418.19
2022-08-11T05:32:46.194Z,101423.53
2022-08-11T05:36:00.756Z,101424.84
2022-08-11T05:38:31.595Z,101423.41
2022-08-11T05:41:19.774Z,101414.91
2022-08-11T05:44:20.838Z,101418.84
2022-08-11T05:47:09.296Z,101425.63
2022-08-11T05:49:58.069Z,101428.88
2022-08-11T05:52:47.099Z,101421.56
2022-08-11T05:55:35.765Z,101428.06
2022-08-11T05:58:26.028Z,101422.03
2022-08-11T06:00:55.144Z,101427.47
2022-08-11T06:03:29.314Z,101419.88
2022-08-11T06:05:59.545Z,101426.25
2022-08-11T06:08:36.186Z,101429.13
2022-08-11T06:11:07.495Z,101428.47
2022-08-11T06:13:44.914Z,101437.00
2022-08-11T06:16:16.540Z,101434.56
2022-08-11T06:18:47.874Z,101428.78
2022-08-11T06:21:18.955Z,101429.72
2022-08-11T06:23:48.288Z,101431.22
2022-08-11T06:26:17.905Z,101429.38
2022-08-11T06:28:49.615Z,101430.03
2022-08-11T06:31:24.307Z,101431.81
2022-08-11T06:34:01.885Z,101433.41
2022-08-11T06:36:37.174Z,101428.19
2022-08-11T06:39:19.153Z,101432.41
2022-08-11T06:41:53.845Z,101427.22
2022-08-11T06:44:32.576Z,101424.97
2022-08-11T06:47:10.894Z,101419.03
2022-08-11T06:50:04.044Z,101426.34
2022-08-11T06:52:36.457Z,101430.69
2022-08-11T06:55:55.517Z,101431.69
2022-08-11T06:58:16.965Z,101418.59
2022-08-11T07:00:49.274Z,101427.56
2022-08-11T07:03:21.058Z,101428.00
2022-08-11T07:05:53.305Z,101426.78
2022-08-11T07:09:12.475Z,101417.41
2022-08-11T07:12:21.307Z,101418.69
2022-08-11T07:15:11.944Z,101419.03
2022-08-11T07:17:50.015Z,101426.66
2022-08-11T07:20:37.169Z,101422.03
2022-08-11T07:23:28.227Z,101426.69
2022-08-11T07:26:19.504Z,101427.09
2022-08-11T07:28:58.129Z,101421.41
2022-08-11T07:31:33.574Z,101425.44
2022-08-11T07:34:15.943Z,101422.03
2022-08-11T07:36:51.955Z,101426.81
2022-08-11T07:39:22.905Z,101427.94
2022-08-11T07:41:54.417Z,101433.22
2022-08-11T07:44:34.839Z,101421.06
2022-08-11T07:47:21.695Z,101418.22
2022-08-11T07:50:11.638Z,101426.16
2022-08-11T07:52:41.213Z,101421.28
2022-08-11T07:55:15.036Z,101414.47
2022-08-11T07:58:15.994Z,101417.59
2022-08-11T08:01:10.588Z,101410.53
2022-08-11T08:04:08.365Z,101414.25
2022-08-11T08:06:57.177Z,101421.75
2022-08-11T08:09:44.904Z,101419.94
2022-08-11T08:12:33.108Z,101418.69
2022-08-11T08:15:25.235Z,101410.44
2022-08-11T08:18:09.288Z,101412.34
2022-08-11T08:20:50.388Z,101411.91
2022-08-11T08:23:33.857Z,101411.28
2022-08-11T08:26:05.204Z,101407.06
2022-08-11T08:28:35.219Z,101407.06
2022-08-11T08:31:03.874Z,101412.03
2022-08-11T08:33:33.609Z,101405.59
2022-08-11T08:36:17.184Z,101399.25
2022-08-11T08:38:50.658Z,101393.44
2022-08-11T08:41:23.894Z,101391.13
2022-08-11T08:43:55.797Z,101386.16
2022-08-11T08:46:29.687Z,101393.03
2022-08-11T08:49:08.415Z,101390.91
2022-08-11T08:52:02.440Z,101383.50
2022-08-11T08:54:41.065Z,101390.06
2022-08-11T08:57:12.374Z,101387.63
2022-08-11T08:59:49.047Z,101381.50
2022-08-11T09:02:34.334Z,101383.81
2022-08-11T09:05:05.460Z,101381.38
2022-08-11T09:07:38.725Z,101387.22
2022-08-11T09:10:12.258Z,101381.59
2022-08-11T09:12:43.823Z,101385.63
2022-08-11T09:15:19.544Z,101376.72
2022-08-11T09:17:50.310Z,101378.44
2022-08-11T09:20:21.176Z,101377.34
2022-08-11T09:26:20.076Z,101365.41
2022-08-11T09:28:51.575Z,101366.25
2022-08-11T09:31:23.084Z,101367.00
2022-08-11T09:33:55.627Z,101374.44
2022-08-11T09:36:41.884Z,101365.69
2022-08-11T09:39:31.155Z,101367.88
2022-08-11T09:42:23.725Z,101369.31
2022-08-11T09:44:53.976Z,101369.09
2022-08-11T09:47:24.916Z,101362.09
2022-08-11T09:50:00.855Z,101349.13
2022-08-11T09:52:33.844Z,101355.88
2022-08-11T09:55:06.535Z,101353.50
2022-08-11T09:57:55.146Z,101357.94
2022-08-11T10:00:30.910Z,101350.31
2022-08-11T10:03:02.786Z,101343.22
2022-08-11T10:05:49.752Z,101341.50
2022-08-11T10:08:20.044Z,101346.94
2022-08-11T10:10:49.456Z,101337.50
2022-08-11T10:14:30.534Z,101334.13
2022-08-11T10:16:16.650Z,101336.69
2022-08-11T10:18:53.487Z,101327.31
2022-08-11T10:21:31.686Z,101327.09
2022-08-11T10:24:19.389Z,101333.94
2022-08-11T10:26:55.974Z,101330.34
2022-08-11T10:29:49.830Z,101323.25
2022-08-11T10:32:57.223Z,101324.31
2022-08-11T10:35:28.746Z,101332.50
2022-08-11T10:38:08.306Z,101322.69
2022-08-11T10:40:40.427Z,101328.94
2022-08-11T10:43:14.253Z,101318.13
2022-08-11T10:46:05.057Z,101314.78
2022-08-11T10:48:39.166Z,101314.91
2022-08-11T10:51:15.241Z,101312.97
2022-08-11T10:54:02.926Z,101311.19
2022-08-11T10:56:51.586Z,101311.41
2022-08-11T10:59:20.304Z,101311.78
2022-08-11T11:01:51.914Z,101304.44
2022-08-11T11:04:24.604Z,101302.03
2022-08-11T11:07:04.005Z,101305.78
2022-08-11T11:09:34.774Z,101296.50
2022-08-11T11:12:29.832Z,101302.78
2022-08-11T11:15:17.989Z,101306.38
2022-08-11T11:18:04.907Z,101308.91
2022-08-11T11:20:45.045Z,101297.72
2022-08-11T11:23:20.195Z,101295.19
2022-08-11T11:26:10.396Z,101300.22
2022-08-11T11:29:26.297Z,101299.28
2022-08-11T11:32:09.143Z,101296.03
2022-08-11T11:35:12.373Z,101299.44
2022-08-11T11:37:56.093Z,101290.41
2022-08-11T11:40:31.928Z,101289.56
2022-08-11T11:43:01.682Z,101293.50
2022-08-11T11:45:30.536Z,101288.22
2022-08-11T11:48:01.183Z,101286.44
2022-08-11T11:50:36.014Z,101289.78
2022-08-11T11:53:08.394Z,101288.34
2022-08-11T11:55:38.866Z,101287.13
2022-08-11T11:58:25.556Z,101287.97
2022-08-11T12:01:12.437Z,101289.03
2022-08-11T12:03:42.144Z,101294.94
2022-08-11T12:06:15.634Z,101284.84
2022-08-11T12:08:45.574Z,101281.59
2022-08-11T12:11:32.126Z,101270.06
2022-08-11T12:14:10.709Z,101277.38
2022-08-11T12:16:41.667Z,101276.69
2022-08-11T12:19:13.064Z,101269.34
2022-08-11T12:22:05.399Z,101278.59
2022-08-11T12:24:53.844Z,101282.69
2022-08-11T12:27:25.071Z,101265.84
2022-08-11T12:29:57.867Z,101268.13
2022-08-11T12:32:29.412Z,101271.59
2022-08-11T12:34:58.785Z,101263.41
2022-08-11T12:37:33.247Z,101266.91
2022-08-11T12:40:48.792Z,101264.88
2022-08-11T12:43:39.051Z,101258.47
2022-08-11T12:46:15.875Z,101266.88
2022-08-11T12:49:06.405Z,101262.56
2022-08-11T12:52:01.468Z,101268.91
2022-08-11T12:54:52.189Z,101261.09
2022-08-11T12:57:45.632Z,101257.47
2022-08-11T13:00:33.273Z,101262.28
2022-08-11T13:03:20.556Z,101258.44
2022-08-11T13:05:50.038Z,101253.97
2022-08-11T13:08:19.369Z,101251.75
2022-08-11T13:11:21.945Z,101244.53
2022-08-11T13:13:57.455Z,101237.69
2022-08-11T13:16:30.735Z,101242.91
2022-08-11T13:19:01.584Z,101236.44
2022-08-11T13:21:31.705Z,101232.13
2022-08-11T13:24:03.682Z,101227.41
2022-08-11T13:26:47.340Z,101219.72
2022-08-11T13:29:22.933Z,101219.31
2022-08-11T13:31:52.025Z,101219.06
2022-08-11T13:34:21.769Z,101220.63
2022-08-11T13:36:53.495Z,101218.69
2022-08-11T13:39:24.526Z,101222.25
2022-08-11T13:41:57.109Z,101222.09
2022-08-11T13:44:28.746Z,101214.88
2022-08-11T13:47:01.807Z,101214.16
2022-08-11T13:49:32.345Z,101220.38
2022-08-11T13:52:01.921Z,101215.34
2022-08-11T13:54:33.986Z,101211.00
2022-08-11T13:57:13.491Z,101207.38
2022-08-11T13:59:51.854Z,101207.50
2022-08-11T14:02:29.511Z,101202.09
2022-08-11T14:05:00.797Z,101214.09
2022-08-11T14:07:36.566Z,101211.03
2022-08-11T14:10:07.794Z,101216.81
2022-08-11T14:12:57.087Z,101200.31
2022-08-11T14:15:29.315Z,101206.19
2022-08-11T14:18:03.525Z,101210.25
2022-08-11T14:20:55.276Z,101206.50
2022-08-11T14:23:29.986Z,101203.88
2022-08-11T14:26:16.925Z,101208.22
2022-08-11T14:28:48.510Z,101208.63
2022-08-11T14:31:17.835Z,101204.16
2022-08-11T14:34:00.481Z,101192.88
2022-08-11T14:36:34.189Z,101195.53
2022-08-11T14:39:14.256Z,101202.09
2022-08-11T14:42:10.923Z,101189.41
2022-08-11T14:45:02.815Z,101186.13
2022-08-11T14:47:35.867Z,101191.91
2022-08-11T14:50:11.064Z,101184.72
2022-08-11T14:52:46.134Z,101184.16
2022-08-11T14:55:33.944Z,101194.75
2022-08-11T14:58:04.185Z,101191.28
2022-08-11T15:00:36.277Z,101187.53
2022-08-11T15:03:11.859Z,101185.75
2022-08-11T15:05:57.754Z,101176.56
2022-08-11T15:08:47.247Z,101179.63
2022-08-11T15:11:34.702Z,101177.81
2022-08-11T15:14:07.290Z,101180.38
2022-08-11T15:16:56.254Z,101172.81
2022-08-11T15:19:40.300Z,101171.75
2022-08-11T15:22:32.964Z,101170.63
2022-08-11T15:25:01.746Z,101165.19
2022-08-11T15:27:52.871Z,101153.19
2022-08-11T15:30:40.347Z,101159.50
2022-08-11T15:33:32.325Z,101150.78
2022-08-11T15:36:22.267Z,101154.50
2022-08-11T15:38:59.784Z,101157.56
2022-08-11T15:41:54.512Z,101150.03
2022-08-11T15:45:03.707Z,101155.63
2022-08-11T15:47:41.772Z,101158.56
2022-08-11T15:50:17.315Z,101152.97
2022-08-11T15:52:48.846Z,101155.34
2022-08-11T15:55:19.194Z,101154.81
2022-08-11T15:58:08.125Z,101152.63
2022-08-11T16:00:59.101Z,101144.13
2022-08-11T16:04:07.300Z,101148.56
2022-08-11T16:06:54.874Z,101143.69
2022-08-11T16:09:43.764Z,101145.91
2022-08-11T16:12:20.546Z,101141.13
2022-08-11T16:15:10.464Z,101136.72
2022-08-11T16:17:44.664Z,101140.34
2022-08-11T16:20:15.754Z,101142.63
2022-08-11T16:22:58.961Z,101142.88
2022-08-11T16:27:05.454Z,101133.09
2022-08-11T16:28:25.434Z,101132.69
2022-08-11T16:30:56.559Z,101133.25
2022-08-11T16:33:49.947Z,101131.44
2022-08-11T16:36:34.486Z,101128.22
2022-08-11T16:39:06.324Z,101129.31
2022-08-11T16:41:55.133Z,101117.41
2022-08-11T16:44:41.644Z,101114.09
2022-08-11T16:47:16.974Z,101123.88
2022-08-11T16:49:52.511Z,101116.47
2022-08-11T16:52:22.714Z,101114.09
2022-08-11T16:55:41.878Z,101114.94
2022-08-11T16:58:32.995Z,101119.13
2022-08-11T17:01:03.702Z,101117.31
2022-08-11T17:03:52.181Z,101114.50
2022-08-11T17:06:40.424Z,101109.63
2022-08-11T17:09:29.005Z,101111.81
2022-08-11T17:12:17.976Z,101111.69
2022-08-11T17:14:51.423Z,101112.69
2022-08-11T17:17:26.374Z,101100.34
2022-08-11T17:20:42.264Z,101106.22
2022-08-11T17:23:13.199Z,101104.28
2022-08-11T17:26:03.659Z,101100.63
2022-08-11T17:29:28.979Z,101100.78
2022-08-11T17:32:15.874Z,101095.31
2022-08-11T17:38:22.534Z,101098.09
2022-08-11T17:41:23.622Z,101098.22
2022-08-11T17:44:14.853Z,101100.06
2022-08-11T17:47:18.184Z,101090.53
2022-08-11T17:49:56.924Z,101092.38
2022-08-11T17:53:03.925Z,101096.72
2022-08-11T17:55:53.448Z,101090.81
2022-08-11T17:58:40.924Z,101092.81
2022-08-11T18:01:13.095Z,101086.13
2022-08-11T18:03:57.321Z,101082.59
2022-08-11T18:06:35.361Z,101087.66
2022-08-11T18:09:26.696Z,101082.22
2022-08-11T18:12:22.495Z,101088.78
2022-08-11T18:15:12.518Z,101088.47
2022-08-11T18:18:01.314Z,101088.63
2022-08-11T18:20:49.556Z,101090.31
2022-08-11T18:23:43.376Z,101094.78
2022-08-11T18:26:36.650Z,101095.91
2022-08-11T18:29:24.769Z,101101.50
2022-08-11T18:32:21.274Z,101096.47
2022-08-11T18:35:11.239Z,101091.44
2022-08-11T18:38:04.741Z,101090.06
2022-08-11T18:40:51.770Z,101084.75
2022-08-11T18:43:43.166Z,101087.28
2022-08-11T18:46:42.819Z,101093.53
2022-08-11T18:50:02.569Z,101096.47
2022-08-11T18:52:43.620Z,101088.97
2022-08-11T18:55:42.904Z,101095.06
2022-08-11T18:58:36.270Z,101096.50
2022-08-11T19:01:27.922Z,101097.84
2022-08-11T19:04:17.251Z,101098.41
2022-08-11T19:07:07.731Z,101091.00
2022-08-11T19:09:55.329Z,101100.66
2022-08-11T19:12:43.280Z,101104.97
2022-08-11T19:15:32.960Z,101111.56
2022-08-11T19:18:47.290Z,101109.72
2022-08-11T19:21:35.461Z,101113.47
2022-08-11T19:24:24.100Z,101120.31
2022-08-11T19:27:12.630Z,101117.78
2022-08-11T19:30:07.675Z,101120.28
2022-08-11T19:33:02.719Z,101136.28
2022-08-11T19:35:49.832Z,101135.13
2022-08-11T19:38:37.410Z,101128.13
2022-08-11T19:41:52.061Z,101144.31
2022-08-11T19:44:32.931Z,101150.16
2022-08-11T19:47:22.402Z,101160.31
2022-08-11T19:50:13.113Z,101157.34
2022-08-11T19:53:00.261Z,101167.94
2022-08-11T19:55:46.701Z,101167.63
2022-08-11T19:58:34.532Z,101160.91
2022-08-11T20:01:20.179Z,101163.13
2022-08-11T20:04:06.960Z,101171.13
2022-08-11T20:06:56.591Z,101178.50
2022-08-11T20:10:01.257Z,101182.69
2022-08-11T20:12:51.701Z,101179.72
2022-08-11T20:15:39.911Z,101176.03
2022-08-11T20:18:29.434Z,101189.03
2022-08-11T20:21:24.993Z,101194.88
2022-08-11T20:24:21.505Z,101191.25
2022-08-11T20:27:24.704Z,101194.41
2022-08-11T20:30:12.484Z,101190.59
2022-08-11T20:33:00.652Z,101201.28
2022-08-11T20:35:48.391Z,101204.44
2022-08-11T20:38:40.770Z,101203.50
2022-08-11T20:41:31.571Z,101206.66
2022-08-11T20:44:36.891Z,101196.34
2022-08-11T20:47:25.216Z,101202.72
2022-08-11T20:50:19.492Z,101199.97
2022-08-11T20:53:07.621Z,101203.34
2022-08-11T20:56:00.166Z,101186.63
2022-08-11T21:02:11.896Z,101202.88
2022-08-11T21:05:06.575Z,101200.81
2022-08-11T21:08:00.671Z,101209.22
2022-08-11T21:11:27.880Z,101208.03
2022-08-11T21:14:46.446Z,101211.50
2022-08-11T21:18:00.599Z,101218.03
2022-08-11T21:20:52.886Z,101219.25
2022-08-11T21:23:39.933Z,101214.13
2022-08-11T21:26:31.081Z,101208.41
2022-08-11T21:29:22.382Z,101209.34
2022-08-11T21:32:10.025Z,101223.75
2022-08-11T21:34:57.556Z,101221.00
2022-08-11T21:37:44.830Z,101214.06
2022-08-11T21:40:38.002Z,101217.41
2022-08-11T21:43:25.301Z,101220.19
2022-08-11T21:46:13.962Z,101221.00
2022-08-11T21:49:00.621Z,101215.13
2022-08-11T21:51:46.291Z,101225.56
2022-08-11T21:54:32.921Z,101222.09
2022-08-11T21:57:20.278Z,101227.28
2022-08-11T22:00:12.371Z,101218.59
2022-08-11T22:03:03.345Z,101216.22
2022-08-11T22:05:52.081Z,101216.81
2022-08-11T22:08:40.574Z,101220.78
2022-08-11T22:11:31.856Z,101221.38
2022-08-11T22:14:41.392Z,101231.09
2022-08-11T22:20:50.002Z,101224.00
2022-08-11T22:23:38.231Z,101229.06
2022-08-11T22:26:27.392Z,101228.34
2022-08-11T22:29:14.991Z,101232.06
2022-08-11T22:32:02.652Z,101224.63
2022-08-11T22:34:53.787Z,101230.88
2022-08-11T22:37:44.091Z,101227.00
2022-08-11T22:40:33.222Z,101222.81
2022-08-11T22:43:22.922Z,101235.34
2022-08-11T22:46:15.997Z,101232.78
2022-08-11T22:49:07.381Z,101227.25
2022-08-11T22:51:58.982Z,101230.03
2022-08-11T22:54:54.211Z,101228.81
2022-08-11T22:58:00.447Z,101225.59
2022-08-11T23:00:48.744Z,101228.22
2022-08-11T23:03:37.574Z,101232.03
2022-08-11T23:06:25.211Z,101219.28
2022-08-11T23:09:12.394Z,101228.69
2022-08-11T23:12:06.679Z,101222.69
2022-08-11T23:15:02.221Z,101219.53
2022-08-11T23:18:05.022Z,101223.03
2022-08-11T23:21:01.852Z,101224.94
2022-08-11T23:23:51.151Z,101231.06
2022-08-11T23:26:40.981Z,101227.44
2022-08-11T23:29:34.382Z,101224.19
2022-08-11T23:32:23.182Z,101220.69
2022-08-11T23:42:32.391Z,101234.47
2022-08-11T23:45:26.602Z,101233.03
2022-08-11T23:48:13.042Z,101223.53
2022-08-11T23:51:22.701Z,101223.75
2022-08-11T23:54:46.091Z,101225.91
2022-08-11T23:57:48.816Z,101213.78
